Wardeh — ODUS — position and weather

sailwx.info

Track history (hours):
 
Tides and Currents Weather Stations Pressure Air Temp Water Temp Dewpoint Dewpoint Depression Visibility Wind Speed Wind Dir Waves Ship Positions

Wardeh

Last reported at 2017-Jul-22 19:11 UTC. Time now 2017-Aug-18 12:42 UTC.
Position N 35°51' E 030°36'.
Warning: this ship's position is 26 days out of date.

; draft 7.2 m.

Type: Cargo ship. MMSI: 450522000.

Date/timePositionNaut miles runAvg speedWind from/ knotsBaromVisibWave heightAir tempDewpointWater temp
2017-Jul-22 19:11N 35°51' E 030°36'  
2017-Jul-20 13:50N 36°32' E 015°42'513.6
2017-Jul-20 13:30N 36°33' E 015°37'913.9
2017-Jul-20 12:53N 36°33' E 015°26'614.2
2017-Jul-20 12:27N 36°34' E 015°19'614.1
2017-Jul-20 12:00N 36°34' E 015°11'713.9
2017-Jul-20 11:30N 36°35' E 015°02'713.8
2017-Jul-20 11:00N 36°37' E 014°54'714.8
2017-Jul-20 10:31N 36°38' E 014°45'815.0
2017-Jul-20 10:00N 36°40' E 014°36'714.8
2017-Jul-20 09:30N 36°42' E 014°27'714.5
2017-Jul-20 09:01N 36°44' E 014°18'714.6
2017-Jul-20 08:30N 36°45' E 014°09'714.8
2017-Jul-20 08:01N 36°47' E 014°00'714.3
2017-Jul-20 07:31N 36°49' E 013°51'714.0
2017-Jul-20 07:01N 36°51' E 013°43'713.8
2017-Jul-20 06:30N 36°52' E 013°34'713.8
2017-Jul-20 06:01N 36°54' E 013°26'713.7
2017-Jul-20 05:30N 36°56' E 013°18'713.7
2017-Jul-20 05:00N 36°57' E 013°09'713.6
2017-Jul-20 04:30N 36°58' E 013°01'7313.5
2017-Jul-19 23:08N 37°16' E 011°33'213.8
2017-Jul-19 23:00N 37°17' E 011°31'913.6
2017-Jul-19 22:22N 37°19' E 011°20'9813.2
2017-Jul-19 14:58N 37°26' E 009°18'3813.0
2017-Jul-19 12:03N 37°19' E 008°31'113.0
2017-Jul-19 11:58N 37°19' E 008°30'4812.9
2017-Jul-19 08:16N 37°19' E 007°30'3013.5
2017-Jul-19 06:04N 37°19' E 006°52'1313.8
2017-Jul-19 05:09N 37°17' E 006°37'213.8
2017-Jul-19 04:59N 37°17' E 006°34'1413.8
2017-Jul-19 03:57N 37°15' E 006°16'613.6
2017-Jul-19 03:30N 37°13' E 006°09'713.3
2017-Jul-19 03:00N 37°11' E 006°01'713.3
2017-Jul-19 02:30N 37°10' E 005°52'713.1
2017-Jul-19 02:00N 37°10' E 005°44'1012.9
2017-Jul-19 01:15N 37°09' E 005°32'413.0
2017-Jul-19 00:55N 37°09' E 005°27'513.2
2017-Jul-19 00:30N 37°08' E 005°20'713.4
2017-Jul-19 00:00N 37°08' E 005°11'713.5
2017-Jul-18 23:30N 37°08' E 005°03'813.6
2017-Jul-18 22:57N 37°07' E 004°54'613.6
2017-Jul-18 22:29N 37°06' E 004°46'913.5
2017-Jul-18 21:51N 37°05' E 004°35'713.3
2017-Jul-18 21:20N 37°04' E 004°27'413.0
2017-Jul-18 21:00N 37°04' E 004°21'612.8
2017-Jul-18 20:30N 37°03' E 004°13'713.4
2017-Jul-18 20:00N 37°02' E 004°05'1013.3
2017-Jul-18 19:16N 37°01' E 003°53'312.7
2017-Jul-18 19:00N 37°00' E 003°49'612.4
2017-Jul-18 18:30N 36°59' E 003°41'612.3
2017-Jul-18 18:00N 36°59' E 003°33'712.9
2017-Jul-18 17:30N 36°58' E 003°25'612.7
2017-Jul-18 17:00N 36°57' E 003°17'613.1
2017-Jul-18 16:30N 36°56' E 003°09'713.6
2017-Jul-18 16:00N 36°55' E 003°01'713.6
2017-Jul-18 15:30N 36°54' E 002°52'713.5
2017-Jul-18 15:00N 36°54' E 002°44'1313.3
2017-Jul-18 14:00N 36°52' E 002°28'713.2
2017-Jul-18 13:30N 36°50' E 002°19'713.3
2017-Jul-18 13:00N 36°50' E 002°11'813.3
2017-Jul-18 12:25N 36°49' E 002°02'513.5
2017-Jul-18 12:00N 36°48' E 001°55'713.4
2017-Jul-18 11:30N 36°47' E 001°46'713.3
2017-Jul-18 11:00N 36°46' E 001°38'713.3
2017-Jul-18 10:30N 36°45' E 001°30'1113.3
2017-Jul-18 09:39N 36°44' E 001°16'213.2
2017-Jul-18 09:30N 36°43' E 001°13'3013.8
2017-Jul-18 07:21N 36°39' E 000°37'513.8
2017-Jul-18 07:00N 36°39' E 000°31'713.6
2017-Jul-18 06:30N 36°38' E 000°23'713.5
2017-Jul-18 06:00N 36°37' E 000°14'1413.4
2017-Jul-18 04:56N 36°34' W 000°03'1913.5
2017-Jul-18 03:30N 36°32' W 000°27'813.5
2017-Jul-18 02:55N 36°31' W 000°37'513.3
2017-Jul-18 02:30N 36°30' W 000°43'713.3
2017-Jul-18 02:00N 36°29' W 000°52'3513.1
2017-Jul-17 23:20N 36°24' W 001°35'514.0
2017-Jul-17 23:00N 36°23' W 001°41'3114.6
2017-Jul-17 20:51N 36°19' W 002°19'21013.8
2017-Jul-17 05:34N 35°27' W 006°31'113.7
2017-Jul-17 05:30N 35°26' W 006°31'913.3
2017-Jul-17 04:51N 35°20' W 006°39'513.2
2017-Jul-17 04:30N 35°17' W 006°43'713.2
2017-Jul-17 04:00N 35°13' W 006°49'813.4
2017-Jul-17 03:24N 35°07' W 006°56'1213.0
2017-Jul-17 02:28N 34°59' W 007°07'613.2
2017-Jul-17 02:00N 34°54' W 007°12'913.2
2017-Jul-17 01:18N 34°48' W 007°20'813.2
2017-Jul-17 00:41N 34°42' W 007°27'413.1
2017-Jul-17 00:22N 34°39' W 007°31'3113.0
2017-Jul-16 22:00N 34°18' W 007°58'713.0
2017-Jul-16 21:28N 34°13' W 008°04'1912.9
2017-Jul-16 19:59N 34°00' W 008°21'612.7
2017-Jul-16 19:30N 33°56' W 008°26'612.7
2017-Jul-16 19:00N 33°51' W 008°32'612.6
2017-Jul-16 18:30N 33°47' W 008°37'612.5
2017-Jul-16 18:00N 33°43' W 008°42'612.5
2017-Jul-16 17:30N 33°38' W 008°48'612.4
2017-Jul-16 17:00N 33°34' W 008°53'612.4
2017-Jul-16 16:30N 33°30' W 008°59'712.4
2017-Jul-16 15:59N 33°25' W 009°04'612.3
2017-Jul-16 15:30N 33°21' W 009°09'612.5
2017-Jul-16 15:00N 33°17' W 009°14'612.2
2017-Jul-16 14:30N 33°12' W 009°20'612.0
2017-Jul-16 14:00N 33°08' W 009°25'612.0
2017-Jul-16 13:30N 33°04' W 009°30'612.2
2017-Jul-16 12:59N 32°60' W 009°36'612.3
2017-Jul-16 12:30N 32°56' W 009°41'612.0
2017-Jul-16 12:00N 32°52' W 009°46'711.9
2017-Jul-16 11:25N 32°47' W 009°52'512.1
2017-Jul-16 11:00N 32°43' W 009°56'712.3
2017-Jul-16 10:28N 32°38' W 010°02'1212.2
2017-Jul-16 09:30N 32°30' W 010°12'2312.3
2017-Jul-16 07:38N 32°14' W 010°31'212.2
2017-Jul-16 07:28N 32°13' W 010°33'812.3
2017-Jul-16 06:51N 32°07' W 010°39'412.4
2017-Jul-16 06:30N 32°04' W 010°43'612.6
2017-Jul-16 06:00N 32°00' W 010°48'712.6
2017-Jul-16 05:29N 31°55' W 010°54'612.6
2017-Jul-16 05:00N 31°51' W 010°59'612.5
2017-Jul-16 04:30N 31°47' W 011°04'612.3
2017-Jul-16 04:00N 31°43' W 011°09'612.2
2017-Jul-16 03:30N 31°39' W 011°15'812.5
2017-Jul-16 02:50N 31°33' W 011°22'412.6
2017-Jul-16 02:30N 31°30' W 011°25'612.4
2017-Jul-16 02:00N 31°26' W 011°31'612.5
2017-Jul-16 01:30N 31°21' W 011°36'912.1
2017-Jul-16 00:45N 31°15' W 011°43'412.2
2017-Jul-16 00:28N 31°13' W 011°46'712.2
2017-Jul-15 23:52N 31°08' W 011°52'1212.0
2017-Jul-15 22:52N 30°59' W 012°02'712.1
2017-Jul-15 22:17N 30°54' W 012°09'412.0
2017-Jul-15 21:55N 30°52' W 012°13'511.9
2017-Jul-15 21:30N 30°48' W 012°17'711.9
2017-Jul-15 20:57N 30°44' W 012°22'511.8
2017-Jul-15 20:30N 30°40' W 012°27'911.9
2017-Jul-15 19:43N 30°33' W 012°34'411.9
2017-Jul-15 19:23N 30°31' W 012°38'512.0
2017-Jul-15 18:58N 30°27' W 012°42'612.2
2017-Jul-15 18:28N 30°23' W 012°47'3912.3
2017-Jul-15 15:19N 29°55' W 013°19'3412.8
2017-Jul-15 12:40N 29°32' W 013°47'412.8
2017-Jul-15 12:19N 29°29' W 013°51'412.9
2017-Jul-15 12:00N 29°26' W 013°54'6613.0
2017-Jul-15 06:56N 28°40' W 014°47'613.0
2017-Jul-15 06:29N 28°35' W 014°52'712.9
2017-Jul-15 05:58N 28°31' W 014°57'613.1
2017-Jul-15 05:30N 28°27' W 015°02'713.0
2017-Jul-15 05:00N 28°22' W 015°07'713.1
2017-Jul-15 04:30N 28°17' W 015°12'612.6
2017-Jul-15 04:00N 28°13' W 015°17'612.4
2017-Jul-15 03:30N 28°08' W 015°22'3 5.1
2017-Jul-15 03:00N 28°06' W 015°24'0 0.0
2017-Jul-15 02:30N 28°06' W 015°24'0 0.0
2017-Jul-15 02:00N 28°06' W 015°24'0 0.0
2017-Jul-15 01:30N 28°06' W 015°24'0 0.0
2017-Jul-15 01:00N 28°06' W 015°24'0 0.0
2017-Jul-15 00:30N 28°06' W 015°24'0 0.0
2017-Jul-15 00:00N 28°06' W 015°24'0 0.1
2017-Jul-14 23:30N 28°06' W 015°24'0 0.0
2017-Jul-14 23:00N 28°06' W 015°24'0 0.0
2017-Jul-14 22:30N 28°06' W 015°24'0 0.1
2017-Jul-14 22:00N 28°06' W 015°24'0 0.1
2017-Jul-14 21:21N 28°06' W 015°24'0 0.0
2017-Jul-14 20:51N 28°06' W 015°24'0 0.0
2017-Jul-14 20:21N 28°06' W 015°24'0 0.1
2017-Jul-14 19:54N 28°06' W 015°24'0 0.0
2017-Jul-14 19:24N 28°06' W 015°24'0 0.0
2017-Jul-14 18:54N 28°06' W 015°24'0 0.0
2017-Jul-14 18:24N 28°06' W 015°24'0 0.0
2017-Jul-14 17:54N 28°06' W 015°24'0 0.0
2017-Jul-14 17:24N 28°06' W 015°24'0 0.1
2017-Jul-14 16:57N 28°06' W 015°24'0 0.1
2017-Jul-14 16:27N 28°06' W 015°24'0 0.1
2017-Jul-14 15:57N 28°06' W 015°24'0 0.0
2017-Jul-14 15:27N 28°06' W 015°24'0 0.0
2017-Jul-14 14:42N 28°06' W 015°24'0 0.0
2017-Jul-14 14:27N 28°06' W 015°24'0 0.0
2017-Jul-14 14:00N 28°06' W 015°24'0 0.0
2017-Jul-14 13:30N 28°06' W 015°24'0 0.0
2017-Jul-14 13:00N 28°06' W 015°24'0 0.0
2017-Jul-14 12:30N 28°06' W 015°24'0 0.0
2017-Jul-14 12:00N 28°06' W 015°24'0 0.0
2017-Jul-14 11:30N 28°06' W 015°24'0 0.0
2017-Jul-14 11:00N 28°06' W 015°24'0 0.0
2017-Jul-14 10:30N 28°06' W 015°24'0 0.0
2017-Jul-14 10:00N 28°06' W 015°24'0 0.0
2017-Jul-14 09:15N 28°06' W 015°24'0 0.1
2017-Jul-14 09:00N 28°06' W 015°24'0 0.1
2017-Jul-14 08:30N 28°06' W 015°24'0 0.1
2017-Jul-14 08:00N 28°06' W 015°24'0 0.0
2017-Jul-14 07:30N 28°06' W 015°24'0 0.0
2017-Jul-14 06:51N 28°06' W 015°24'0 0.1
2017-Jul-14 06:21N 28°06' W 015°24'0 0.0
2017-Jul-14 05:51N 28°06' W 015°24'0 0.1
2017-Jul-14 05:24N 28°06' W 015°24'0 0.1
2017-Jul-14 04:54N 28°06' W 015°24'0 0.0
2017-Jul-14 04:24N 28°06' W 015°24'0 0.0
2017-Jul-14 03:54N 28°06' W 015°24'0 0.0
2017-Jul-14 03:24N 28°06' W 015°24'0 0.0
2017-Jul-14 02:57N 28°06' W 015°24'0 0.0
2017-Jul-14 02:27N 28°06' W 015°24'0 0.0
2017-Jul-14 01:57N 28°06' W 015°24'0 0.0
2017-Jul-14 01:27N 28°06' W 015°24'0 0.0
2017-Jul-14 00:57N 28°06' W 015°24'0 0.1
2017-Jul-14 00:27N 28°06' W 015°24'0 0.0
2017-Jul-13 23:57N 28°06' W 015°24'0 0.0
2017-Jul-13 23:30N 28°06' W 015°24'0 0.0
2017-Jul-13 23:00N 28°06' W 015°24'0 0.0
2017-Jul-13 22:27N 28°06' W 015°24'0 0.1
2017-Jul-13 22:00N 28°06' W 015°24'0 0.1
2017-Jul-13 21:30N 28°06' W 015°24'0 0.1
2017-Jul-13 21:00N 28°06' W 015°24'0 0.1
2017-Jul-13 20:30N 28°06' W 015°24'0 0.1
2017-Jul-13 20:00N 28°06' W 015°24'0 0.0
2017-Jul-13 19:30N 28°06' W 015°24'0 0.0
2017-Jul-13 19:00N 28°06' W 015°24'0 0.0
2017-Jul-13 18:30N 28°06' W 015°24'0 0.0
2017-Jul-13 18:00N 28°06' W 015°24'0 0.1
2017-Jul-13 17:30N 28°06' W 015°24'0 0.2
2017-Jul-13 17:00N 28°06' W 015°24'0 0.2
2017-Jul-13 16:30N 28°06' W 015°24'1 2.2
2017-Jul-13 16:00N 28°07' W 015°23'1 1.7
2017-Jul-13 15:30N 28°06' W 015°22'3 5.4
2017-Jul-13 15:00N 28°04' W 015°20'611.9
2017-Jul-13 14:30N 27°59' W 015°17'612.4
2017-Jul-13 14:00N 27°53' W 015°18'712.4
2017-Jul-13 13:28N 27°46' W 015°20'14 9.1
2017-Jul-13 11:58N 27°34' W 015°27'4 7.8
2017-Jul-13 11:30N 27°31' W 015°29'5 8.5
2017-Jul-13 10:52N 27°26' W 015°31'3 8.8
2017-Jul-13 10:30N 27°23' W 015°33'7 8.7
2017-Jul-13 09:42N 27°16' W 015°35'4 8.1
2017-Jul-13 09:15N 27°13' W 015°37'4 8.1
2017-Jul-13 08:47N 27°09' W 015°38'1810.9
2017-Jul-13 07:08N 26°53' W 015°47'  
Track history (hours):
 
Tides and Currents Weather Stations Pressure Air Temp Water Temp Dewpoint Dewpoint Depression Visibility Wind Speed Wind Dir Waves Ship Positions

Wardeh

Last reported at 2017-Jul-22 19:11 UTC. Time now 2017-Aug-18 12:42 UTC.
Position N 35°51' E 030°36'.
Warning: this ship's position is 26 days out of date.

; draft 7.2 m.

Type: Cargo ship. MMSI: 450522000.

Date/timePositionNaut miles runAvg speedWind from/ knotsBaromVisibWave heightAir tempDewpointWater temp
2017-Jul-22 19:11N 35°51' E 030°36'  
2017-Jul-20 13:50N 36°32' E 015°42'513.6
2017-Jul-20 13:30N 36°33' E 015°37'913.9
2017-Jul-20 12:53N 36°33' E 015°26'614.2
2017-Jul-20 12:27N 36°34' E 015°19'614.1
2017-Jul-20 12:00N 36°34' E 015°11'713.9
2017-Jul-20 11:30N 36°35' E 015°02'713.8
2017-Jul-20 11:00N 36°37' E 014°54'714.8
2017-Jul-20 10:31N 36°38' E 014°45'815.0
2017-Jul-20 10:00N 36°40' E 014°36'714.8
2017-Jul-20 09:30N 36°42' E 014°27'714.5
2017-Jul-20 09:01N 36°44' E 014°18'714.6
2017-Jul-20 08:30N 36°45' E 014°09'714.8
2017-Jul-20 08:01N 36°47' E 014°00'714.3
2017-Jul-20 07:31N 36°49' E 013°51'714.0
2017-Jul-20 07:01N 36°51' E 013°43'713.8
2017-Jul-20 06:30N 36°52' E 013°34'713.8
2017-Jul-20 06:01N 36°54' E 013°26'713.7
2017-Jul-20 05:30N 36°56' E 013°18'713.7
2017-Jul-20 05:00N 36°57' E 013°09'713.6
2017-Jul-20 04:30N 36°58' E 013°01'7313.5
2017-Jul-19 23:08N 37°16' E 011°33'213.8
2017-Jul-19 23:00N 37°17' E 011°31'913.6
2017-Jul-19 22:22N 37°19' E 011°20'9813.2
2017-Jul-19 14:58N 37°26' E 009°18'3813.0
2017-Jul-19 12:03N 37°19' E 008°31'113.0
2017-Jul-19 11:58N 37°19' E 008°30'4812.9
2017-Jul-19 08:16N 37°19' E 007°30'3013.5
2017-Jul-19 06:04N 37°19' E 006°52'1313.8
2017-Jul-19 05:09N 37°17' E 006°37'213.8
2017-Jul-19 04:59N 37°17' E 006°34'1413.8
2017-Jul-19 03:57N 37°15' E 006°16'613.6
2017-Jul-19 03:30N 37°13' E 006°09'713.3
2017-Jul-19 03:00N 37°11' E 006°01'713.3
2017-Jul-19 02:30N 37°10' E 005°52'713.1
2017-Jul-19 02:00N 37°10' E 005°44'1012.9
2017-Jul-19 01:15N 37°09' E 005°32'413.0
2017-Jul-19 00:55N 37°09' E 005°27'513.2
2017-Jul-19 00:30N 37°08' E 005°20'713.4
2017-Jul-19 00:00N 37°08' E 005°11'713.5
2017-Jul-18 23:30N 37°08' E 005°03'813.6
2017-Jul-18 22:57N 37°07' E 004°54'613.6
2017-Jul-18 22:29N 37°06' E 004°46'913.5
2017-Jul-18 21:51N 37°05' E 004°35'713.3
2017-Jul-18 21:20N 37°04' E 004°27'413.0
2017-Jul-18 21:00N 37°04' E 004°21'612.8
2017-Jul-18 20:30N 37°03' E 004°13'713.4
2017-Jul-18 20:00N 37°02' E 004°05'1013.3
2017-Jul-18 19:16N 37°01' E 003°53'312.7
2017-Jul-18 19:00N 37°00' E 003°49'612.4
2017-Jul-18 18:30N 36°59' E 003°41'612.3
2017-Jul-18 18:00N 36°59' E 003°33'712.9
2017-Jul-18 17:30N 36°58' E 003°25'612.7
2017-Jul-18 17:00N 36°57' E 003°17'613.1
2017-Jul-18 16:30N 36°56' E 003°09'713.6
2017-Jul-18 16:00N 36°55' E 003°01'713.6
2017-Jul-18 15:30N 36°54' E 002°52'713.5
2017-Jul-18 15:00N 36°54' E 002°44'1313.3
2017-Jul-18 14:00N 36°52' E 002°28'713.2
2017-Jul-18 13:30N 36°50' E 002°19'713.3
2017-Jul-18 13:00N 36°50' E 002°11'813.3
2017-Jul-18 12:25N 36°49' E 002°02'513.5
2017-Jul-18 12:00N 36°48' E 001°55'713.4
2017-Jul-18 11:30N 36°47' E 001°46'713.3
2017-Jul-18 11:00N 36°46' E 001°38'713.3
2017-Jul-18 10:30N 36°45' E 001°30'1113.3
2017-Jul-18 09:39N 36°44' E 001°16'213.2
2017-Jul-18 09:30N 36°43' E 001°13'3013.8
2017-Jul-18 07:21N 36°39' E 000°37'513.8
2017-Jul-18 07:00N 36°39' E 000°31'713.6
2017-Jul-18 06:30N 36°38' E 000°23'713.5
2017-Jul-18 06:00N 36°37' E 000°14'1413.4
2017-Jul-18 04:56N 36°34' W 000°03'1913.5
2017-Jul-18 03:30N 36°32' W 000°27'813.5
2017-Jul-18 02:55N 36°31' W 000°37'513.3
2017-Jul-18 02:30N 36°30' W 000°43'713.3
2017-Jul-18 02:00N 36°29' W 000°52'3513.1
2017-Jul-17 23:20N 36°24' W 001°35'514.0
2017-Jul-17 23:00N 36°23' W 001°41'3114.6
2017-Jul-17 20:51N 36°19' W 002°19'21013.8
2017-Jul-17 05:34N 35°27' W 006°31'113.7
2017-Jul-17 05:30N 35°26' W 006°31'913.3
2017-Jul-17 04:51N 35°20' W 006°39'513.2
2017-Jul-17 04:30N 35°17' W 006°43'713.2
2017-Jul-17 04:00N 35°13' W 006°49'813.4
2017-Jul-17 03:24N 35°07' W 006°56'1213.0
2017-Jul-17 02:28N 34°59' W 007°07'613.2
2017-Jul-17 02:00N 34°54' W 007°12'913.2
2017-Jul-17 01:18N 34°48' W 007°20'813.2
2017-Jul-17 00:41N 34°42' W 007°27'413.1
2017-Jul-17 00:22N 34°39' W 007°31'3113.0
2017-Jul-16 22:00N 34°18' W 007°58'713.0
2017-Jul-16 21:28N 34°13' W 008°04'1912.9
2017-Jul-16 19:59N 34°00' W 008°21'612.7
2017-Jul-16 19:30N 33°56' W 008°26'612.7
2017-Jul-16 19:00N 33°51' W 008°32'612.6
2017-Jul-16 18:30N 33°47' W 008°37'612.5
2017-Jul-16 18:00N 33°43' W 008°42'612.5
2017-Jul-16 17:30N 33°38' W 008°48'612.4
2017-Jul-16 17:00N 33°34' W 008°53'612.4
2017-Jul-16 16:30N 33°30' W 008°59'712.4
2017-Jul-16 15:59N 33°25' W 009°04'612.3
2017-Jul-16 15:30N 33°21' W 009°09'612.5
2017-Jul-16 15:00N 33°17' W 009°14'612.2
2017-Jul-16 14:30N 33°12' W 009°20'612.0
2017-Jul-16 14:00N 33°08' W 009°25'612.0
2017-Jul-16 13:30N 33°04' W 009°30'612.2
2017-Jul-16 12:59N 32°60' W 009°36'612.3
2017-Jul-16 12:30N 32°56' W 009°41'612.0
2017-Jul-16 12:00N 32°52' W 009°46'711.9
2017-Jul-16 11:25N 32°47' W 009°52'512.1
2017-Jul-16 11:00N 32°43' W 009°56'712.3
2017-Jul-16 10:28N 32°38' W 010°02'1212.2
2017-Jul-16 09:30N 32°30' W 010°12'2312.3
2017-Jul-16 07:38N 32°14' W 010°31'212.2
2017-Jul-16 07:28N 32°13' W 010°33'812.3
2017-Jul-16 06:51N 32°07' W 010°39'412.4
2017-Jul-16 06:30N 32°04' W 010°43'612.6
2017-Jul-16 06:00N 32°00' W 010°48'712.6
2017-Jul-16 05:29N 31°55' W 010°54'612.6
2017-Jul-16 05:00N 31°51' W 010°59'612.5
2017-Jul-16 04:30N 31°47' W 011°04'612.3
2017-Jul-16 04:00N 31°43' W 011°09'612.2
2017-Jul-16 03:30N 31°39' W 011°15'812.5
2017-Jul-16 02:50N 31°33' W 011°22'412.6
2017-Jul-16 02:30N 31°30' W 011°25'612.4
2017-Jul-16 02:00N 31°26' W 011°31'612.5
2017-Jul-16 01:30N 31°21' W 011°36'912.1
2017-Jul-16 00:45N 31°15' W 011°43'412.2
2017-Jul-16 00:28N 31°13' W 011°46'712.2
2017-Jul-15 23:52N 31°08' W 011°52'1212.0
2017-Jul-15 22:52N 30°59' W 012°02'712.1
2017-Jul-15 22:17N 30°54' W 012°09'412.0
2017-Jul-15 21:55N 30°52' W 012°13'511.9
2017-Jul-15 21:30N 30°48' W 012°17'711.9
2017-Jul-15 20:57N 30°44' W 012°22'511.8
2017-Jul-15 20:30N 30°40' W 012°27'911.9
2017-Jul-15 19:43N 30°33' W 012°34'411.9
2017-Jul-15 19:23N 30°31' W 012°38'512.0
2017-Jul-15 18:58N 30°27' W 012°42'612.2
2017-Jul-15 18:28N 30°23' W 012°47'3912.3
2017-Jul-15 15:19N 29°55' W 013°19'3412.8
2017-Jul-15 12:40N 29°32' W 013°47'412.8
2017-Jul-15 12:19N 29°29' W 013°51'412.9
2017-Jul-15 12:00N 29°26' W 013°54'6613.0
2017-Jul-15 06:56N 28°40' W 014°47'613.0
2017-Jul-15 06:29N 28°35' W 014°52'712.9
2017-Jul-15 05:58N 28°31' W 014°57'613.1
2017-Jul-15 05:30N 28°27' W 015°02'713.0
2017-Jul-15 05:00N 28°22' W 015°07'713.1
2017-Jul-15 04:30N 28°17' W 015°12'612.6
2017-Jul-15 04:00N 28°13' W 015°17'612.4
2017-Jul-15 03:30N 28°08' W 015°22'3 5.1
2017-Jul-15 03:00N 28°06' W 015°24'0 0.0
2017-Jul-15 02:30N 28°06' W 015°24'0 0.0
2017-Jul-15 02:00N 28°06' W 015°24'0 0.0
2017-Jul-15 01:30N 28°06' W 015°24'0 0.0
2017-Jul-15 01:00N 28°06' W 015°24'0 0.0
2017-Jul-15 00:30N 28°06' W 015°24'0 0.0
2017-Jul-15 00:00N 28°06' W 015°24'0 0.1
2017-Jul-14 23:30N 28°06' W 015°24'0 0.0
2017-Jul-14 23:00N 28°06' W 015°24'0 0.0
2017-Jul-14 22:30N 28°06' W 015°24'0 0.1
2017-Jul-14 22:00N 28°06' W 015°24'0 0.1
2017-Jul-14 21:21N 28°06' W 015°24'0 0.0
2017-Jul-14 20:51N 28°06' W 015°24'0 0.0
2017-Jul-14 20:21N 28°06' W 015°24'0 0.1
2017-Jul-14 19:54N 28°06' W 015°24'0 0.0
2017-Jul-14 19:24N 28°06' W 015°24'0 0.0
2017-Jul-14 18:54N 28°06' W 015°24'0 0.0
2017-Jul-14 18:24N 28°06' W 015°24'0 0.0
2017-Jul-14 17:54N 28°06' W 015°24'0 0.0
2017-Jul-14 17:24N 28°06' W 015°24'0 0.1
2017-Jul-14 16:57N 28°06' W 015°24'0 0.1
2017-Jul-14 16:27N 28°06' W 015°24'0 0.1
2017-Jul-14 15:57N 28°06' W 015°24'0 0.0
2017-Jul-14 15:27N 28°06' W 015°24'0 0.0
2017-Jul-14 14:42N 28°06' W 015°24'0 0.0
2017-Jul-14 14:27N 28°06' W 015°24'0 0.0
2017-Jul-14 14:00N 28°06' W 015°24'0 0.0
2017-Jul-14 13:30N 28°06' W 015°24'0 0.0
2017-Jul-14 13:00N 28°06' W 015°24'0 0.0
2017-Jul-14 12:30N 28°06' W 015°24'0 0.0
2017-Jul-14 12:00N 28°06' W 015°24'0 0.0
2017-Jul-14 11:30N 28°06' W 015°24'0 0.0
2017-Jul-14 11:00N 28°06' W 015°24'0 0.0
2017-Jul-14 10:30N 28°06' W 015°24'0 0.0
2017-Jul-14 10:00N 28°06' W 015°24'0 0.0
2017-Jul-14 09:15N 28°06' W 015°24'0 0.1
2017-Jul-14 09:00N 28°06' W 015°24'0 0.1
2017-Jul-14 08:30N 28°06' W 015°24'0 0.1
2017-Jul-14 08:00N 28°06' W 015°24'0 0.0
2017-Jul-14 07:30N 28°06' W 015°24'0 0.0
2017-Jul-14 06:51N 28°06' W 015°24'0 0.1
2017-Jul-14 06:21N 28°06' W 015°24'0 0.0
2017-Jul-14 05:51N 28°06' W 015°24'0 0.1
2017-Jul-14 05:24N 28°06' W 015°24'0 0.1
2017-Jul-14 04:54N 28°06' W 015°24'0 0.0
2017-Jul-14 04:24N 28°06' W 015°24'0 0.0
2017-Jul-14 03:54N 28°06' W 015°24'0 0.0
2017-Jul-14 03:24N 28°06' W 015°24'0 0.0
2017-Jul-14 02:57N 28°06' W 015°24'0 0.0
2017-Jul-14 02:27N 28°06' W 015°24'0 0.0
2017-Jul-14 01:57N 28°06' W 015°24'0 0.0
2017-Jul-14 01:27N 28°06' W 015°24'0 0.0
2017-Jul-14 00:57N 28°06' W 015°24'0 0.1
2017-Jul-14 00:27N 28°06' W 015°24'0 0.0
2017-Jul-13 23:57N 28°06' W 015°24'0 0.0
2017-Jul-13 23:30N 28°06' W 015°24'0 0.0
2017-Jul-13 23:00N 28°06' W 015°24'0 0.0
2017-Jul-13 22:27N 28°06' W 015°24'0 0.1
2017-Jul-13 22:00N 28°06' W 015°24'0 0.1
2017-Jul-13 21:30N 28°06' W 015°24'0 0.1
2017-Jul-13 21:00N 28°06' W 015°24'0 0.1
2017-Jul-13 20:30N 28°06' W 015°24'0 0.1
2017-Jul-13 20:00N 28°06' W 015°24'0 0.0
2017-Jul-13 19:30N 28°06' W 015°24'0 0.0
2017-Jul-13 19:00N 28°06' W 015°24'0 0.0
2017-Jul-13 18:30N 28°06' W 015°24'0 0.0
2017-Jul-13 18:00N 28°06' W 015°24'0 0.1
2017-Jul-13 17:30N 28°06' W 015°24'0 0.2
2017-Jul-13 17:00N 28°06' W 015°24'0 0.2
2017-Jul-13 16:30N 28°06' W 015°24'1 2.2
2017-Jul-13 16:00N 28°07' W 015°23'1 1.7
2017-Jul-13 15:30N 28°06' W 015°22'3 5.4
2017-Jul-13 15:00N 28°04' W 015°20'611.9
2017-Jul-13 14:30N 27°59' W 015°17'612.4
2017-Jul-13 14:00N 27°53' W 015°18'712.4
2017-Jul-13 13:28N 27°46' W 015°20'14 9.1
2017-Jul-13 11:58N 27°34' W 015°27'4 7.8
2017-Jul-13 11:30N 27°31' W 015°29'5 8.5
2017-Jul-13 10:52N 27°26' W 015°31'3 8.8
2017-Jul-13 10:30N 27°23' W 015°33'7 8.7
2017-Jul-13 09:42N 27°16' W 015°35'4 8.1
2017-Jul-13 09:15N 27°13' W 015°37'4 8.1
2017-Jul-13 08:47N 27°09' W 015°38'1810.9
2017-Jul-13 07:08N 26°53' W 015°47'  

Dump ship's entire track history